Terminal Aerodrome Forecast
Issued by NWS Greer, SC

Home | Current Version | Previous Version | Text Only | Print | Product List | Glossary On
Versions: 1 2 3 4 5 6 7 8 9 10 11 12 13 14 15 16 17 18 19 20 21 22 23 24 25 26 27 28 29 30 31 32 33 34 35 36 37 38 39 40
000
FTUS42 KGSP 172058 AAA
TAFCLT
TAF AMD
KCLT 172058Z 1721/1818 16004KT P6SM FEW250
     FM180400 19003KT P6SM SCT250
     FM181200 20004KT P6SM FEW025 SCT120 BKN250
     FM181500 20010G18KT P6SM BKN025=

USA.gov is the U.S. government's official web portal to all federal, state and local government web resources and services.